sensor_id;sensor_type;location;lat;lon;timestamp;pressure;altitude;pressure_sealevel;temperature;humidity
43312;BME280;30041;48.300;16.352;2022-08-03T00:00:07;99974.34;;;24.86;48.14
43312;BME280;30041;48.300;16.352;2022-08-03T00:02:33;99978.13;;;24.85;48.03
43312;BME280;30041;48.300;16.352;2022-08-03T00:04:59;99974.84;;;24.83;48.31
43312;BME280;30041;48.300;16.352;2022-08-03T00:07:24;99977.31;;;24.85;48.10
43312;BME280;30041;48.300;16.352;2022-08-03T00:09:50;99979.19;;;24.84;48.13
43312;BME280;30041;48.300;16.352;2022-08-03T00:12:16;99978.38;;;24.84;48.32
43312;BME280;30041;48.300;16.352;2022-08-03T00:14:41;99982.75;;;24.85;47.93
43312;BME280;30041;48.300;16.352;2022-08-03T00:17:07;99975.66;;;24.84;48.11
43312;BME280;30041;48.300;16.352;2022-08-03T00:19:32;99983.22;;;24.82;48.15
43312;BME280;30041;48.300;16.352;2022-08-03T00:21:58;99976.19;;;24.81;48.47
43312;BME280;30041;48.300;16.352;2022-08-03T00:24:24;99970.75;;;24.81;48.29
43312;BME280;30041;48.300;16.352;2022-08-03T00:26:49;99978.03;;;24.80;48.35
43312;BME280;30041;48.300;16.352;2022-08-03T00:29:15;99976.66;;;24.78;48.45
43312;BME280;30041;48.300;16.352;2022-08-03T00:31:40;99971.81;;;24.80;48.11
43312;BME280;30041;48.300;16.352;2022-08-03T00:34:06;99970.44;;;24.77;48.23
43312;BME280;30041;48.300;16.352;2022-08-03T00:36:32;99971.25;;;24.78;48.10
43312;BME280;30041;48.300;16.352;2022-08-03T00:38:57;99970.44;;;24.77;48.38
43312;BME280;30041;48.300;16.352;2022-08-03T00:41:23;99979.38;;;24.78;48.29
43312;BME280;30041;48.300;16.352;2022-08-03T00:43:49;99972.09;;;24.78;48.40
43312;BME280;30041;48.300;16.352;2022-08-03T00:46:15;99971.81;;;24.80;48.19
43312;BME280;30041;48.300;16.352;2022-08-03T00:48:40;99971.00;;;24.79;48.36
43312;BME280;30041;48.300;16.352;2022-08-03T00:51:06;99975.28;;;24.75;48.33
43312;BME280;30041;48.300;16.352;2022-08-03T00:53:34;99982.66;;;24.80;48.17
43312;BME280;30041;48.300;16.352;2022-08-03T00:56:00;99977.50;;;24.78;47.94
43312;BME280;30041;48.300;16.352;2022-08-03T00:58:28;99967.47;;;24.79;48.09
43312;BME280;30041;48.300;16.352;2022-08-03T01:00:53;99982.09;;;24.78;48.43
43312;BME280;30041;48.300;16.352;2022-08-03T01:03:19;99971.25;;;24.78;48.10
43312;BME280;30041;48.300;16.352;2022-08-03T01:14:12;99974.97;;;24.72;48.40
43312;BME280;30041;48.300;16.352;2022-08-03T01:17:04;99966.34;;;24.75;48.49
43312;BME280;30041;48.300;16.352;2022-08-03T01:19:44;99965.25;;;24.76;48.19
43312;BME280;30041;48.300;16.352;2022-08-03T01:28:45;99960.34;;;24.73;48.59
43312;BME280;30041;48.300;16.352;2022-08-03T01:31:14;99959.25;;;24.74;48.63
43312;BME280;30041;48.300;16.352;2022-08-03T01:33:44;99961.97;;;24.74;48.38
43312;BME280;30041;48.300;16.352;2022-08-03T01:36:17;99959.78;;;24.71;48.68
43312;BME280;30041;48.300;16.352;2022-08-03T01:38:53;99964.19;;;24.77;48.89
43312;BME280;30041;48.300;16.352;2022-08-03T01:41:21;99957.38;;;24.74;48.63
43312;BME280;30041;48.300;16.352;2022-08-03T01:43:50;99958.19;;;24.75;48.89
43312;BME280;30041;48.300;16.352;2022-08-03T01:46:18;99957.63;;;24.73;49.04
43312;BME280;30041;48.300;16.352;2022-08-03T01:48:47;99961.97;;;24.74;48.92
43312;BME280;30041;48.300;16.352;2022-08-03T01:51:16;99962.53;;;24.76;48.86
43312;BME280;30041;48.300;16.352;2022-08-03T01:53:43;99957.13;;;24.76;48.91
43312;BME280;30041;48.300;16.352;2022-08-03T01:56:10;99966.56;;;24.73;49.17
43312;BME280;30041;48.300;16.352;2022-08-03T01:58:37;99959.78;;;24.71;49.04
43312;BME280;30041;48.300;16.352;2022-08-03T02:01:06;99959.19;;;24.69;49.43
43312;BME280;30041;48.300;16.352;2022-08-03T02:03:36;99959.53;;;24.72;49.04
43312;BME280;30041;48.300;16.352;2022-08-03T02:06:03;99963.88;;;24.73;49.25
43312;BME280;30041;48.300;16.352;2022-08-03T02:08:30;99964.69;;;24.74;49.21
43312;BME280;30041;48.300;16.352;2022-08-03T02:10:57;99965.19;;;24.71;49.63
43312;BME280;30041;48.300;16.352;2022-08-03T02:13:24;99957.31;;;24.69;49.57
43312;BME280;30041;48.300;16.352;2022-08-03T02:15:51;99958.63;;;24.67;49.79
43312;BME280;30041;48.300;16.352;2022-08-03T02:18:19;99957.56;;;24.68;49.83
43312;BME280;30041;48.300;16.352;2022-08-03T02:20:45;99951.88;;;24.69;49.87
43312;BME280;30041;48.300;16.352;2022-08-03T02:23:13;99952.72;;;24.70;49.85
43312;BME280;30041;48.300;16.352;2022-08-03T02:25:45;99957.31;;;24.69;49.81
43312;BME280;30041;48.300;16.352;2022-08-03T02:28:57;99955.44;;;24.70;50.00
43312;BME280;30041;48.300;16.352;2022-08-03T02:31:19;99950.84;;;24.70;49.95
43312;BME280;30041;48.300;16.352;2022-08-03T02:33:52;99954.34;;;24.71;50.20
43312;BME280;30041;48.300;16.352;2022-08-03T02:36:22;99955.69;;;24.68;50.06
43312;BME280;30041;48.300;16.352;2022-08-03T02:38:51;99952.63;;;24.64;50.31
43312;BME280;30041;48.300;16.352;2022-08-03T02:41:23;99954.06;;;24.67;50.33
43312;BME280;30041;48.300;16.352;2022-08-03T02:43:52;99959.72;;;24.65;50.46
43312;BME280;30041;48.300;16.352;2022-08-03T02:46:19;99956.75;;;24.67;50.27
43312;BME280;30041;48.300;16.352;2022-08-03T02:48:47;99954.06;;;24.67;50.37
43312;BME280;30041;48.300;16.352;2022-08-03T02:51:16;99960.28;;;24.68;50.50
43312;BME280;30041;48.300;16.352;2022-08-03T02:53:44;99959.16;;;24.63;50.45
43312;BME280;30041;48.300;16.352;2022-08-03T02:56:11;99954.06;;;24.67;50.46
43312;BME280;30041;48.300;16.352;2022-08-03T02:58:39;99950.78;;;24.65;50.40
43312;BME280;30041;48.300;16.352;2022-08-03T03:01:07;99961.78;;;24.58;50.53
43312;BME280;30041;48.300;16.352;2022-08-03T03:03:33;99960.94;;;24.58;50.83
43312;BME280;30041;48.300;16.352;2022-08-03T03:06:01;99958.50;;;24.56;50.60
43312;BME280;30041;48.300;16.352;2022-08-03T03:08:27;99960.19;;;24.62;50.55
43312;BME280;30041;48.300;16.352;2022-08-03T03:10:55;99961.28;;;24.61;50.43
43312;BME280;30041;48.300;16.352;2022-08-03T03:13:22;99969.41;;;24.61;50.61
43312;BME280;30041;48.300;16.352;2022-08-03T03:15:48;99964.75;;;24.57;50.80
43312;BME280;30041;48.300;16.352;2022-08-03T03:18:15;99962.28;;;24.55;50.60
43312;BME280;30041;48.300;16.352;2022-08-03T03:20:42;99968.78;;;24.54;50.74
43312;BME280;30041;48.300;16.352;2022-08-03T03:23:10;99972.06;;;24.56;50.33
43312;BME280;30041;48.300;16.352;2022-08-03T03:25:36;99966.38;;;24.58;50.64
43312;BME280;30041;48.300;16.352;2022-08-03T03:28:03;99972.13;;;24.61;50.57
43312;BME280;30041;48.300;16.352;2022-08-03T03:30:29;99971.78;;;24.58;50.67
43312;BME280;30041;48.300;16.352;2022-08-03T03:32:57;99970.91;;;24.52;50.82
43312;BME280;30041;48.300;16.352;2022-08-03T03:35:23;99979.03;;;24.52;50.86
43312;BME280;30041;48.300;16.352;2022-08-03T03:37:49;99973.94;;;24.56;50.93
43312;BME280;30041;48.300;16.352;2022-08-03T03:40:14;99973.63;;;24.52;50.77
43312;BME280;30041;48.300;16.352;2022-08-03T03:42:41;99972.31;;;24.55;51.01
43312;BME280;30041;48.300;16.352;2022-08-03T03:45:07;99975.53;;;24.52;50.74
43312;BME280;30041;48.300;16.352;2022-08-03T03:47:34;99971.88;;;24.46;51.26
43312;BME280;30041;48.300;16.352;2022-08-03T03:50:01;99977.09;;;24.48;51.06
43312;BME280;30041;48.300;16.352;2022-08-03T03:52:28;99979.63;;;24.54;50.98
43312;BME280;30041;48.300;16.352;2022-08-03T03:54:53;99984.53;;;24.57;50.71
43312;BME280;30041;48.300;16.352;2022-08-03T03:57:19;99976.97;;;24.59;50.56
43312;BME280;30041;48.300;16.352;2022-08-03T03:59:45;99973.69;;;24.57;51.00
43312;BME280;30041;48.300;16.352;2022-08-03T04:02:11;99972.38;;;24.60;50.55
43312;BME280;30041;48.300;16.352;2022-08-03T04:04:37;99974.84;;;24.61;50.94
43312;BME280;30041;48.300;16.352;2022-08-03T04:07:03;99980.31;;;24.67;50.51
43312;BME280;30041;48.300;16.352;2022-08-03T04:09:30;99991.09;;;24.61;50.69
43312;BME280;30041;48.300;16.352;2022-08-03T04:11:59;99983.03;;;24.67;50.47
43312;BME280;30041;48.300;16.352;2022-08-03T04:14:32;99990.34;;;24.66;50.70
43312;BME280;30041;48.300;16.352;2022-08-03T04:17:04;99989.75;;;24.64;50.63
43312;BME280;30041;48.300;16.352;2022-08-03T04:19:45;100000.38;;;24.65;50.66
43312;BME280;30041;48.300;16.352;2022-08-03T04:22:16;99996.00;;;24.64;50.85
43312;BME280;30041;48.300;16.352;2022-08-03T04:24:47;99993.28;;;24.64;50.54
43312;BME280;30041;48.300;16.352;2022-08-03T04:27:15;99998.47;;;24.66;50.99
43312;BME280;30041;48.300;16.352;2022-08-03T04:29:46;99999.28;;;24.67;50.87
43312;BME280;30041;48.300;16.352;2022-08-03T04:32:12;99998.13;;;24.62;51.11
43312;BME280;30041;48.300;16.352;2022-08-03T04:34:39;100005.78;;;24.65;50.58
43312;BME280;30041;48.300;16.352;2022-08-03T04:37:20;100005.44;;;24.62;50.64
43312;BME280;30041;48.300;16.352;2022-08-03T04:39:48;100007.94;;;24.63;51.08
43312;BME280;30041;48.300;16.352;2022-08-03T04:42:15;100010.06;;;24.61;51.14
43312;BME280;30041;48.300;16.352;2022-08-03T04:44:45;100008.16;;;24.62;50.97
43312;BME280;30041;48.300;16.352;2022-08-03T04:47:13;100010.41;;;24.65;51.04
43312;BME280;30041;48.300;16.352;2022-08-03T04:49:38;100008.50;;;24.65;51.14
43312;BME280;30041;48.300;16.352;2022-08-03T04:52:06;100015.81;;;24.65;51.01
43312;BME280;30041;48.300;16.352;2022-08-03T04:54:43;100021.22;;;24.65;50.74
43312;BME280;30041;48.300;16.352;2022-08-03T04:57:10;100016.06;;;24.63;50.93
43312;BME280;30041;48.300;16.352;2022-08-03T04:59:36;100021.13;;;24.60;51.37
43312;BME280;30041;48.300;16.352;2022-08-03T05:02:02;100024.75;;;24.65;50.75
43312;BME280;30041;48.300;16.352;2022-08-03T05:04:28;100023.81;;;24.77;50.50
43312;BME280;30041;48.300;16.352;2022-08-03T05:06:53;100022.25;;;24.81;50.47
43312;BME280;30041;48.300;16.352;2022-08-03T05:09:19;100025.84;;;24.86;50.44
43312;BME280;30041;48.300;16.352;2022-08-03T05:11:45;100026.66;;;24.87;50.34
43312;BME280;30041;48.300;16.352;2022-08-03T05:14:10;100027.22;;;24.89;50.45
43312;BME280;30041;48.300;16.352;2022-08-03T05:16:36;100025.59;;;24.88;50.56
43312;BME280;30041;48.300;16.352;2022-08-03T05:19:02;100026.19;;;24.90;50.45
43312;BME280;30041;48.300;16.352;2022-08-03T05:21:27;100023.53;;;24.95;50.33
43312;BME280;30041;48.300;16.352;2022-08-03T05:23:53;100032.97;;;24.93;50.10
43312;BME280;30041;48.300;16.352;2022-08-03T05:26:19;100026.47;;;24.94;50.17
43312;BME280;30041;48.300;16.352;2022-08-03T05:28:44;100028.38;;;24.93;50.23
43312;BME280;30041;48.300;16.352;2022-08-03T05:31:10;100027.03;;;24.96;50.14
43312;BME280;30041;48.300;16.352;2022-08-03T05:33:35;100034.59;;;24.94;50.30
43312;BME280;30041;48.300;16.352;2022-08-03T05:36:01;100031.66;;;24.95;50.56
43312;BME280;30041;48.300;16.352;2022-08-03T05:38:27;100032.81;;;24.99;50.22
43312;BME280;30041;48.300;16.352;2022-08-03T05:40:53;100028.69;;;24.97;50.47
43312;BME280;30041;48.300;16.352;2022-08-03T05:43:18;100029.50;;;24.97;50.00
43312;BME280;30041;48.300;16.352;2022-08-03T05:45:44;100032.22;;;24.97;50.21
43312;BME280;30041;48.300;16.352;2022-08-03T05:48:09;100030.03;;;24.94;50.59
43312;BME280;30041;48.300;16.352;2022-08-03T05:50:35;100025.75;;;24.98;50.39
43312;BME280;30041;48.300;16.352;2022-08-03T05:53:01;100029.00;;;25.00;50.36
43312;BME280;30041;48.300;16.352;2022-08-03T05:55:27;100032.56;;;25.01;50.28
43312;BME280;30041;48.300;16.352;2022-08-03T05:57:52;100032.22;;;24.97;50.42
43312;BME280;30041;48.300;16.352;2022-08-03T06:00:18;100030.09;;;24.99;50.08
43312;BME280;30041;48.300;16.352;2022-08-03T06:02:43;100029.00;;;25.00;50.38
43312;BME280;30041;48.300;16.352;2022-08-03T06:05:09;100027.94;;;25.01;50.51
43312;BME280;30041;48.300;16.352;2022-08-03T06:07:35;100027.13;;;25.01;50.51
43312;BME280;30041;48.300;16.352;2022-08-03T06:10:01;100026.56;;;24.99;50.28
43312;BME280;30041;48.300;16.352;2022-08-03T06:12:28;100036.59;;;24.98;50.44
43312;BME280;30041;48.300;16.352;2022-08-03T06:14:54;100026.56;;;24.99;50.36
43312;BME280;30041;48.300;16.352;2022-08-03T06:17:20;100023.56;;;25.00;50.48
43312;BME280;30041;48.300;16.352;2022-08-03T06:19:46;100025.75;;;24.98;50.51
43312;BME280;30041;48.300;16.352;2022-08-03T06:22:11;100027.38;;;24.99;50.56
43312;BME280;30041;48.300;16.352;2022-08-03T06:24:37;100038.22;;;24.99;50.69
43312;BME280;30041;48.300;16.352;2022-08-03T06:27:02;100033.59;;;25.00;50.47
43312;BME280;30041;48.300;16.352;2022-08-03T06:29:28;100035.28;;;25.01;50.56
43312;BME280;30041;48.300;16.352;2022-08-03T06:31:54;100040.69;;;25.01;50.56
43312;BME280;30041;48.300;16.352;2022-08-03T06:34:19;100034.44;;;25.00;50.75
43312;BME280;30041;48.300;16.352;2022-08-03T06:36:45;100030.66;;;25.01;50.57
43312;BME280;30041;48.300;16.352;2022-08-03T06:39:10;100041.00;;;25.04;50.40
43312;BME280;30041;48.300;16.352;2022-08-03T06:41:36;100043.97;;;25.03;50.95
43312;BME280;30041;48.300;16.352;2022-08-03T06:44:02;100034.44;;;25.00;50.75
43312;BME280;30041;48.300;16.352;2022-08-03T06:46:27;100039.38;;;25.03;50.87
43312;BME280;30041;48.300;16.352;2022-08-03T06:48:53;100041.00;;;25.04;50.73
43312;BME280;30041;48.300;16.352;2022-08-03T06:51:19;100048.56;;;25.02;50.77
43312;BME280;30041;48.300;16.352;2022-08-03T06:53:44;100044.22;;;25.01;50.87
43312;BME280;30041;48.300;16.352;2022-08-03T06:56:12;100047.75;;;25.02;51.03
43312;BME280;30041;48.300;16.352;2022-08-03T06:58:38;100041.56;;;25.06;50.94
43312;BME280;30041;48.300;16.352;2022-08-03T07:01:03;100035.66;;;25.10;50.70
43312;BME280;30041;48.300;16.352;2022-08-03T07:03:29;100034.81;;;25.09;51.08
43312;BME280;30041;48.300;16.352;2022-08-03T07:05:55;100044.59;;;25.10;50.96
43312;BME280;30041;48.300;16.352;2022-08-03T07:08:20;100042.94;;;25.09;50.96
43312;BME280;30041;48.300;16.352;2022-08-03T07:10:46;100039.19;;;25.10;51.09
43312;BME280;30041;48.300;16.352;2022-08-03T07:13:11;100042.31;;;25.19;51.32
43312;BME280;30041;48.300;16.352;2022-08-03T07:15:38;100039.47;;;25.14;52.17
43312;BME280;30041;48.300;16.352;2022-08-03T07:18:04;100043.22;;;25.08;52.49
43312;BME280;30041;48.300;16.352;2022-08-03T07:20:30;100034.19;;;25.02;52.59
43312;BME280;30041;48.300;16.352;2022-08-03T07:22:55;100039.94;;;25.05;52.38
43312;BME280;30041;48.300;16.352;2022-08-03T07:25:21;100039.66;;;25.07;53.00
43312;BME280;30041;48.300;16.352;2022-08-03T07:27:48;100035.91;;;25.08;52.32
43312;BME280;30041;48.300;16.352;2022-08-03T07:30:14;100038.09;;;25.11;51.76
43312;BME280;30041;48.300;16.352;2022-08-03T07:32:40;100031.66;;;25.17;51.49
43312;BME280;30041;48.300;16.352;2022-08-03T07:35:07;100035.31;;;25.23;51.62
43312;BME280;30041;48.300;16.352;2022-08-03T07:37:33;100042.88;;;25.21;52.43
43312;BME280;30041;48.300;16.352;2022-08-03T07:40:00;100045.22;;;25.17;52.54
43312;BME280;30041;48.300;16.352;2022-08-03T07:42:27;100037.25;;;25.27;52.08
43312;BME280;30041;48.300;16.352;2022-08-03T07:44:53;100034.88;;;25.36;51.80
43312;BME280;30041;48.300;16.352;2022-08-03T07:47:20;100026.81;;;25.41;51.84
43312;BME280;30041;48.300;16.352;2022-08-03T07:49:54;100030.16;;;25.48;51.91
43312;BME280;30041;48.300;16.352;2022-08-03T07:52:20;100032.88;;;25.48;52.08
43312;BME280;30041;48.300;16.352;2022-08-03T07:54:48;100030.16;;;25.48;51.93
43312;BME280;30041;48.300;16.352;2022-08-03T07:57:13;100043.28;;;25.57;51.79
43312;BME280;30041;48.300;16.352;2022-08-03T07:59:39;100028.31;;;25.54;51.64
43312;BME280;30041;48.300;16.352;2022-08-03T08:02:05;100033.00;;;25.59;51.62
43312;BME280;30041;48.300;16.352;2022-08-03T08:04:34;100029.44;;;25.58;51.75
43312;BME280;30041;48.300;16.352;2022-08-03T08:07:02;100030.00;;;25.60;51.77
43312;BME280;30041;48.300;16.352;2022-08-03T08:09:27;100028.41;;;25.64;51.59
43312;BME280;30041;48.300;16.352;2022-08-03T08:11:53;100044.69;;;25.64;51.50
43312;BME280;30041;48.300;16.352;2022-08-03T08:14:19;100034.97;;;25.68;51.02
43312;BME280;30041;48.300;16.352;2022-08-03T08:16:44;100024.66;;;25.65;51.22
43312;BME280;30041;48.300;16.352;2022-08-03T08:19:10;100025.91;;;25.58;51.66
43312;BME280;30041;48.300;16.352;2022-08-03T08:21:35;100025.09;;;25.57;51.61
43312;BME280;30041;48.300;16.352;2022-08-03T08:24:01;100026.50;;;25.65;51.03
43312;BME280;30041;48.300;16.352;2022-08-03T08:26:26;100026.31;;;25.72;51.01
43312;BME280;30041;48.300;16.352;2022-08-03T08:28:52;100024.44;;;25.72;50.69
43312;BME280;30041;48.300;16.352;2022-08-03T08:31:18;100029.31;;;25.70;50.80
43312;BME280;30041;48.300;16.352;2022-08-03T08:33:44;100033.06;;;25.69;50.99
43312;BME280;30041;48.300;16.352;2022-08-03T08:36:09;100032.59;;;25.72;50.31
43312;BME280;30041;48.300;16.352;2022-08-03T08:38:35;100025.81;;;25.75;50.56
43312;BME280;30041;48.300;16.352;2022-08-03T08:41:00;100023.13;;;25.80;50.42
43312;BME280;30041;48.300;16.352;2022-08-03T08:43:29;100029.69;;;25.84;50.27
43312;BME280;30041;48.300;16.352;2022-08-03T08:45:56;100026.16;;;25.83;50.39
43312;BME280;30041;48.300;16.352;2022-08-03T08:48:24;100022.91;;;25.81;50.55
43312;BME280;30041;48.300;16.352;2022-08-03T08:50:56;100022.00;;;25.76;50.68
43312;BME280;30041;48.300;16.352;2022-08-03T08:53:25;100032.25;;;25.68;50.87
43312;BME280;30041;48.300;16.352;2022-08-03T08:55:54;100027.66;;;25.69;51.14
43312;BME280;30041;48.300;16.352;2022-08-03T08:58:23;100024.38;;;25.67;50.79
43312;BME280;30041;48.300;16.352;2022-08-03T09:00:50;100027.66;;;25.69;51.05
43312;BME280;30041;48.300;16.352;2022-08-03T09:03:16;100034.78;;;25.75;50.71
43312;BME280;30041;48.300;16.352;2022-08-03T09:05:42;100032.31;;;25.74;50.75
43312;BME280;30041;48.300;16.352;2022-08-03T09:08:08;100029.13;;;25.82;50.79
43312;BME280;30041;48.300;16.352;2022-08-03T09:10:34;100028.59;;;25.85;50.94
43312;BME280;30041;48.300;16.352;2022-08-03T09:13:00;100035.09;;;25.79;50.80
43312;BME280;30041;48.300;16.352;2022-08-03T09:15:27;100023.94;;;25.80;50.52
43312;BME280;30041;48.300;16.352;2022-08-03T09:17:55;100032.91;;;25.81;50.65
43312;BME280;30041;48.300;16.352;2022-08-03T09:20:22;100016.94;;;25.84;50.70
43312;BME280;30041;48.300;16.352;2022-08-03T09:23:00;100019.66;;;25.84;50.46
43312;BME280;30041;48.300;16.352;2022-08-03T09:25:35;100020.22;;;25.86;50.54
43312;BME280;30041;48.300;16.352;2022-08-03T09:28:09;100020.28;;;25.92;50.44
43312;BME280;30041;48.300;16.352;2022-08-03T09:30:36;100019.41;;;25.86;50.62
43312;BME280;30041;48.300;16.352;2022-08-03T09:33:10;100014.56;;;25.88;50.54
43312;BME280;30041;48.300;16.352;2022-08-03T09:35:44;100012.06;;;25.86;50.34
43312;BME280;30041;48.300;16.352;2022-08-03T09:38:16;100011.00;;;25.87;50.46
43312;BME280;30041;48.300;16.352;2022-08-03T09:40:42;100007.44;;;25.87;50.49
43312;BME280;30041;48.300;16.352;2022-08-03T09:43:10;100010.16;;;25.87;50.41
43312;BME280;30041;48.300;16.352;2022-08-03T09:45:39;100013.72;;;25.87;50.54
43312;BME280;30041;48.300;16.352;2022-08-03T09:48:26;100002.63;;;25.89;50.39
43312;BME280;30041;48.300;16.352;2022-08-03T09:50:56;99995.56;;;25.88;50.40
43312;BME280;30041;48.300;16.352;2022-08-03T09:53:22;99997.13;;;25.84;50.56
43312;BME280;30041;48.300;16.352;2022-08-03T09:55:55;99998.50;;;25.86;50.31
43312;BME280;30041;48.300;16.352;2022-08-03T09:58:21;99998.28;;;25.88;50.28
43312;BME280;30041;48.300;16.352;2022-08-03T10:00:56;99987.69;;;25.92;50.40
43312;BME280;30041;48.300;16.352;2022-08-03T10:03:23;99989.38;;;25.98;50.00
43312;BME280;30041;48.300;16.352;2022-08-03T10:05:49;99982.31;;;25.97;50.43
43312;BME280;30041;48.300;16.352;2022-08-03T10:08:17;99988.56;;;25.97;50.20
43312;BME280;30041;48.300;16.352;2022-08-03T10:10:44;99987.69;;;25.92;50.45
43312;BME280;30041;48.300;16.352;2022-08-03T10:13:12;99979.75;;;25.85;50.19
43312;BME280;30041;48.300;16.352;2022-08-03T10:15:39;99988.53;;;25.92;50.24
43312;BME280;30041;48.300;16.352;2022-08-03T10:18:05;99977.69;;;25.92;50.19
43312;BME280;30041;48.300;16.352;2022-08-03T10:20:32;99982.03;;;25.93;50.25
43312;BME280;30041;48.300;16.352;2022-08-03T10:23:01;99981.19;;;25.93;50.19
43312;BME280;30041;48.300;16.352;2022-08-03T10:25:29;99977.72;;;25.97;50.09
43312;BME280;30041;48.300;16.352;2022-08-03T10:27:56;99972.00;;;25.99;50.04
43312;BME280;30041;48.300;16.352;2022-08-03T10:30:26;99972.84;;;25.99;49.94
43312;BME280;30041;48.300;16.352;2022-08-03T10:35:24;99967.56;;;25.87;50.44
43312;BME280;30041;48.300;16.352;2022-08-03T10:38:05;99966.94;;;25.80;50.29
43312;BME280;30041;48.300;16.352;2022-08-03T10:40:33;99962.31;;;25.81;50.21
43312;BME280;30041;48.300;16.352;2022-08-03T10:43:08;99964.00;;;25.87;50.23
43312;BME280;30041;48.300;16.352;2022-08-03T10:45:40;99964.28;;;25.85;49.91
43312;BME280;30041;48.300;16.352;2022-08-03T10:48:06;99963.72;;;25.83;49.87
43312;BME280;30041;48.300;16.352;2022-08-03T10:50:32;99956.38;;;25.84;49.92
43312;BME280;30041;48.300;16.352;2022-08-03T10:53:00;99955.56;;;25.83;49.70
43312;BME280;30041;48.300;16.352;2022-08-03T10:55:33;99960.69;;;25.80;49.65
43312;BME280;30041;48.300;16.352;2022-08-03T10:57:59;99950.78;;;25.91;49.60
43312;BME280;30041;48.300;16.352;2022-08-03T11:00:27;99952.72;;;25.95;49.24
43312;BME280;30041;48.300;16.352;2022-08-03T11:03:07;99951.91;;;25.95;49.64
43312;BME280;30041;48.300;16.352;2022-08-03T11:05:41;99950.84;;;26.01;48.96
43312;BME280;30041;48.300;16.352;2022-08-03T11:08:29;99944.91;;;26.04;48.99
43312;BME280;30041;48.300;16.352;2022-08-03T11:10:59;99944.34;;;26.02;48.91
43312;BME280;30041;48.300;16.352;2022-08-03T11:13:26;99944.31;;;25.97;48.96
43312;BME280;30041;48.300;16.352;2022-08-03T11:15:55;99941.84;;;25.95;48.86
43312;BME280;30041;48.300;16.352;2022-08-03T11:18:21;99949.19;;;25.95;48.70
43312;BME280;30041;48.300;16.352;2022-08-03T11:20:50;99941.03;;;25.95;48.76
43312;BME280;30041;48.300;16.352;2022-08-03T11:23:20;99938.81;;;25.92;48.67
43312;BME280;30041;48.300;16.352;2022-08-03T11:26:10;99931.75;;;25.91;48.69
43312;BME280;30041;48.300;16.352;2022-08-03T11:28:36;99933.91;;;25.88;48.93
43312;BME280;30041;48.300;16.352;2022-08-03T11:34:05;99933.84;;;25.83;49.11
43312;BME280;30041;48.300;16.352;2022-08-03T11:39:41;99930.63;;;25.86;48.73
43312;BME280;30041;48.300;16.352;2022-08-03T11:44:55;99925.09;;;25.76;49.22
43312;BME280;30041;48.300;16.352;2022-08-03T11:47:23;99927.00;;;25.76;49.15
43312;BME280;30041;48.300;16.352;2022-08-03T11:49:50;99923.22;;;25.77;48.89
43312;BME280;30041;48.300;16.352;2022-08-03T11:52:18;99924.03;;;25.77;49.14
43312;BME280;30041;48.300;16.352;2022-08-03T11:54:44;99925.78;;;25.88;48.88
43312;BME280;30041;48.300;16.352;2022-08-03T11:57:10;99917.41;;;25.95;48.64
43312;BME280;30041;48.300;16.352;2022-08-03T11:59:37;99920.69;;;25.97;48.66
43312;BME280;30041;48.300;16.352;2022-08-03T12:02:12;99924.50;;;26.01;48.75
43312;BME280;30041;48.300;16.352;2022-08-03T12:04:51;99925.06;;;26.03;48.53
43312;BME280;30041;48.300;16.352;2022-08-03T12:07:18;99922.34;;;26.03;48.84
43312;BME280;30041;48.300;16.352;2022-08-03T12:10:18;99912.81;;;26.01;48.74
43312;BME280;30041;48.300;16.352;2022-08-03T12:12:44;99910.41;;;26.04;48.54
43312;BME280;30041;48.300;16.352;2022-08-03T12:15:10;99918.56;;;26.04;48.55
43312;BME280;30041;48.300;16.352;2022-08-03T12:17:37;99914.25;;;26.08;48.67
43312;BME280;30041;48.300;16.352;2022-08-03T12:20:05;99911.53;;;26.08;48.71
43312;BME280;30041;48.300;16.352;2022-08-03T12:22:37;99905.00;;;26.09;48.51
43312;BME280;30041;48.300;16.352;2022-08-03T12:25:07;99902.84;;;26.12;48.44
43312;BME280;30041;48.300;16.352;2022-08-03T12:27:34;99903.97;;;26.16;48.50
43312;BME280;30041;48.300;16.352;2022-08-03T12:30:00;99902.88;;;26.17;48.50
43312;BME280;30041;48.300;16.352;2022-08-03T12:32:27;99896.38;;;26.18;48.38
43312;BME280;30041;48.300;16.352;2022-08-03T12:34:54;99893.41;;;26.19;48.46
43312;BME280;30041;48.300;16.352;2022-08-03T12:37:21;99888.78;;;26.20;48.38
43312;BME280;30041;48.300;16.352;2022-08-03T12:39:56;99889.31;;;26.22;48.34
43312;BME280;30041;48.300;16.352;2022-08-03T12:42:32;99885.50;;;26.18;48.56
43312;BME280;30041;48.300;16.352;2022-08-03T12:44:58;99889.59;;;26.20;48.76
43312;BME280;30041;48.300;16.352;2022-08-03T12:47:23;99883.34;;;26.20;48.62
43312;BME280;30041;48.300;16.352;2022-08-03T12:49:52;99881.69;;;26.19;48.48
43312;BME280;30041;48.300;16.352;2022-08-03T12:52:20;99882.00;;;26.22;48.34
43312;BME280;30041;48.300;16.352;2022-08-03T12:54:57;99881.44;;;26.20;48.55
43312;BME280;30041;48.300;16.352;2022-08-03T12:57:23;99884.69;;;26.17;48.58
43312;BME280;30041;48.300;16.352;2022-08-03T12:59:49;99884.16;;;26.20;48.59
43312;BME280;30041;48.300;16.352;2022-08-03T13:02:16;99881.72;;;26.24;48.59
43312;BME280;30041;48.300;16.352;2022-08-03T13:04:43;99873.84;;;26.22;48.59
43312;BME280;30041;48.300;16.352;2022-08-03T13:07:10;99869.78;;;26.25;48.19
43312;BME280;30041;48.300;16.352;2022-08-03T13:12:18;99878.16;;;26.18;48.59
43312;BME280;30041;48.300;16.352;2022-08-03T13:14:47;99868.94;;;26.19;48.58
43312;BME280;30041;48.300;16.352;2022-08-03T13:17:13;99865.66;;;26.17;48.59